»·PEaware :: N41G KSNA-KBUR

N41G :: KSNA-KBUR

FLIGHT INFORMATION

Flight Status: Arrived
Operator: Privately registered:
United States
More flights under this callsign
Pilot: Alec D. (17934)
Aircraft: BEECH AIRCRAFT BONANZA
(BE35)
More flights by this aircraft type
Origin: KSNA John Wayne-Orange Co
United States
Destination: KBUR Bob Hope-Burbank
United States
More flights between these airports :: More routes between these airports
Route: SLI V23 POPPR SMO125 SMO SMO311 SILEX
File this flight plan on PilotEdge
Remarks:
Altitude:
(Current/Filed)
4,000ft
Speed:
(Current/Filed)
160kts
Departed: 08-Oct-19 08:50 AM
Arrived: 08-Oct-19 09:22 AM
Distance/Time
Traveled:
40nm/0:32
Distance/Time
To Go:
Arrived

Flight Plot

Page will automatically refresh every two minutes.


Map Options




Map Legend


Flown Route
Filed Route
Departure Airport
Arrival Airport
Navaid (VOR, NDB)
Fix

Horizontal Profiles

Position Reports

Time Latitude Longitude Heading Altitude Ground
Speed
08-Oct-19 08:23 33.666435 -117.873047 219 59ft 0kts
08-Oct-19 08:24 33.666435 -117.873047 219 59ft 0kts
08-Oct-19 08:25 33.666435 -117.873047 219 59ft 0kts
08-Oct-19 08:26 33.666425 -117.873057 219 59ft 0kts
08-Oct-19 08:27 33.666420 -117.873062 219 59ft 0kts
08-Oct-19 08:28 33.666414 -117.873068 219 59ft 0kts
08-Oct-19 08:29 33.666408 -117.873073 219 59ft 0kts
08-Oct-19 08:30 33.666403 -117.873079 219 59ft 0kts
08-Oct-19 08:31 33.666397 -117.873084 219 59ft 0kts
08-Oct-19 08:32 33.666393 -117.873089 219 59ft 0kts
08-Oct-19 08:33 33.666387 -117.873094 219 59ft 0kts
08-Oct-19 08:34 33.666382 -117.873099 219 59ft 0kts
08-Oct-19 08:35 33.666377 -117.873104 219 59ft 0kts
08-Oct-19 08:36 33.666372 -117.873109 219 59ft 0kts
08-Oct-19 08:37 33.666367 -117.873113 219 59ft 0kts
08-Oct-19 08:38 33.666362 -117.873118 219 59ft 0kts
08-Oct-19 08:39 33.666357 -117.873123 219 59ft 0kts
08-Oct-19 08:40 33.666338 -117.873367 327 59ft 7kts
08-Oct-19 08:41 33.669528 -117.870831 38 59ft 16kts
08-Oct-19 08:42 33.672953 -117.867193 45 59ft 16kts
08-Oct-19 08:43 33.676051 -117.865844 26 59ft 19kts
08-Oct-19 08:44 33.679662 -117.863786 331 59ft 0kts
08-Oct-19 08:45 33.679671 -117.863793 331 59ft 0kts
08-Oct-19 08:46 33.679683 -117.863800 331 59ft 0kts
08-Oct-19 08:47 33.679689 -117.863804 331 59ft 0kts
08-Oct-19 08:48 33.679847 -117.864289 250 59ft 4kts
08-Oct-19 08:49 33.667398 -117.872543 209 342ft 109kts
08-Oct-19 08:50 33.646403 -117.901987 234 1563ft 122kts
08-Oct-19 08:51 33.626219 -117.935527 233 2637ft 123kts
08-Oct-19 08:52 33.605096 -117.969469 233 3931ft 138kts
08-Oct-19 08:53 33.614532 -118.011906 310 4004ft 154kts
08-Oct-19 08:54 33.642647 -118.051749 315 4008ft 158kts
08-Oct-19 08:55 33.674007 -118.089319 315 4012ft 159kts
08-Oct-19 08:56 33.706771 -118.125454 317 4010ft 160kts
08-Oct-19 08:57 33.739698 -118.161704 317 3997ft 160kts
08-Oct-19 08:58 33.772692 -118.198016 317 4009ft 164kts
08-Oct-19 08:59 33.806153 -118.236252 315 4009ft 166kts
08-Oct-19 09:00 33.839408 -118.275565 318 4014ft 166kts
08-Oct-19 09:01 33.876304 -118.310253 320 4006ft 166kts
08-Oct-19 09:02 33.910937 -118.346607 318 4015ft 164kts
08-Oct-19 09:03 33.945390 -118.384698 316 3974ft 164kts
08-Oct-19 09:04 33.978374 -118.421934 317 3989ft 159kts
08-Oct-19 09:05 34.011638 -118.458171 321 4012ft 160kts
08-Oct-19 09:06 34.049210 -118.488321 326 4019ft 161kts
08-Oct-19 09:07 34.087313 -118.519099 320 4010ft 162kts
08-Oct-19 09:08 34.118609 -118.558099 314 4000ft 156kts
08-Oct-19 09:09 34.148159 -118.595282 313 4004ft 149kts
08-Oct-19 09:10 34.179279 -118.610686 59 4012ft 145kts
08-Oct-19 09:11 34.197592 -118.566187 62 3998ft 145kts
08-Oct-19 09:12 34.203572 -118.524361 151 3998ft 137kts
08-Oct-19 09:13 34.179948 -118.554045 242 4008ft 142kts
08-Oct-19 09:14 34.187729 -118.587751 21 3803ft 154kts
08-Oct-19 09:15 34.199955 -118.541187 88 3051ft 144kts
08-Oct-19 09:16 34.199421 -118.497590 90 2905ft 111kts
08-Oct-19 09:17 34.199037 -118.461177 89 2329ft 113kts
08-Oct-19 09:18 34.198610 -118.425703 90 1743ft 105kts
08-Oct-19 09:19 34.198247 -118.393449 91 1218ft 81kts
08-Oct-19 09:20 34.197871 -118.365832 88 784ft 72kts
08-Oct-19 09:21 34.198393 -118.360315 8 781ft 0kts
08-Oct-19 09:22 34.199446 -118.360204 33 781ft 10kts
08-Oct-19 09:23 34.200053 -118.360003 76 781ft 0kts
08-Oct-19 09:24 34.200053 -118.360002 76 781ft 0kts

Navigation Log

Ident Type
Flight plan parsing failed, navigation log unavailable